createdAt,value
2019-04-30T00:00:50.046Z,62.23
2019-04-30T00:03:21.291Z,62.39
2019-04-30T00:05:53.807Z,62.43
2019-04-30T00:08:22.197Z,62.74
2019-04-30T00:10:51.875Z,62.81
2019-04-30T00:13:21.493Z,62.50
2019-04-30T00:15:52.871Z,62.47
2019-04-30T00:18:22.413Z,62.57
2019-04-30T00:20:52.008Z,62.31
2019-04-30T00:23:22.598Z,62.25
2019-04-30T00:25:53.017Z,62.13
2019-04-30T00:28:22.629Z,61.28
2019-04-30T00:30:52.234Z,61.22
2019-04-30T00:33:23.156Z,61.42
2019-04-30T00:35:55.163Z,61.54
2019-04-30T00:38:25.288Z,62.09
2019-04-30T00:40:55.731Z,62.38
2019-04-30T00:43:26.540Z,62.65
2019-04-30T00:45:56.158Z,63.06
2019-04-30T00:48:29.605Z,63.60
2019-04-30T00:50:57.139Z,63.93
2019-04-30T00:53:26.725Z,63.92
2019-04-30T00:55:57.343Z,63.75
2019-04-30T00:58:30.192Z,64.07
2019-04-30T01:01:16.150Z,63.58
2019-04-30T01:03:49.569Z,63.42
2019-04-30T01:06:24.656Z,63.25
2019-04-30T01:08:50.065Z,63.25
2019-04-30T01:11:19.841Z,63.21
2019-04-30T01:13:50.983Z,63.07
2019-04-30T01:16:23.579Z,63.46
2019-04-30T01:18:52.080Z,63.50
2019-04-30T01:21:22.155Z,63.31
2019-04-30T01:23:54.756Z,63.35
2019-04-30T01:26:27.684Z,63.40
2019-04-30T01:29:00.556Z,63.87
2019-04-30T01:31:32.466Z,63.93
2019-04-30T01:33:59.249Z,64.03
2019-04-30T01:36:29.389Z,63.87
2019-04-30T01:38:59.333Z,63.89
2019-04-30T01:41:31.398Z,64.18
2019-04-30T01:44:03.753Z,64.57
2019-04-30T01:46:31.742Z,64.34
2019-04-30T01:49:01.346Z,64.34
2019-04-30T01:51:30.944Z,64.61
2019-04-30T01:54:01.527Z,64.96
2019-04-30T01:56:32.777Z,65.07
2019-04-30T01:59:09.982Z,64.47
2019-04-30T02:01:43.786Z,64.00
2019-04-30T02:04:13.396Z,63.34
2019-04-30T02:06:42.991Z,63.12
2019-04-30T02:09:12.611Z,63.09
2019-04-30T02:11:42.201Z,63.19
2019-04-30T02:14:11.805Z,63.05
2019-04-30T02:16:41.414Z,62.92
2019-04-30T02:19:11.085Z,63.01
2019-04-30T02:21:40.686Z,63.02
2019-04-30T02:24:11.159Z,62.54
2019-04-30T02:26:40.864Z,62.28
2019-04-30T02:29:10.484Z,62.33
2019-04-30T02:31:40.801Z,62.07
2019-04-30T02:34:15.264Z,61.85
2019-04-30T02:36:49.922Z,61.98
2019-04-30T02:39:20.402Z,61.96
2019-04-30T02:41:51.684Z,61.10
2019-04-30T02:44:23.900Z,61.03
2019-04-30T02:46:55.706Z,60.93
2019-04-30T02:49:30.366Z,60.93
2019-04-30T02:52:04.116Z,60.35
2019-04-30T02:54:36.660Z,60.05
2019-04-30T02:57:11.723Z,60.30
2019-04-30T03:00:00.350Z,60.57
2019-04-30T03:02:30.941Z,60.13
2019-04-30T03:05:00.613Z,60.28
2019-04-30T03:07:30.525Z,60.53
2019-04-30T03:10:00.215Z,60.51
2019-04-30T03:12:30.637Z,60.62
2019-04-30T03:15:01.301Z,60.49
2019-04-30T03:17:35.423Z,59.98
2019-04-30T03:20:30.934Z,59.91
2019-04-30T03:22:51.344Z,59.85
2019-04-30T03:25:21.416Z,59.84
2019-04-30T03:27:51.030Z,59.46
2019-04-30T03:30:21.915Z,59.67
2019-04-30T03:32:56.645Z,59.60
2019-04-30T03:35:23.438Z,59.14
2019-04-30T03:37:53.138Z,59.27
2019-04-30T03:40:22.740Z,58.98
2019-04-30T03:42:52.349Z,59.04
2019-04-30T03:45:21.955Z,59.13
2019-04-30T03:47:51.540Z,58.85
2019-04-30T03:50:21.177Z,59.10
2019-04-30T03:52:50.746Z,59.09
2019-04-30T03:55:21.721Z,59.17
2019-04-30T03:57:52.057Z,59.30
2019-04-30T04:00:23.367Z,59.25
2019-04-30T04:02:53.008Z,59.15
2019-04-30T04:05:32.995Z,59.21
2019-04-30T04:08:12.742Z,59.27
2019-04-30T04:10:52.642Z,59.16
2019-04-30T04:13:20.956Z,58.91
2019-04-30T04:15:50.577Z,59.20
2019-04-30T04:18:20.387Z,58.62
2019-04-30T04:20:55.149Z,58.52
2019-04-30T04:23:21.434Z,58.64
2019-04-30T04:25:51.039Z,58.21
2019-04-30T04:28:20.644Z,58.22
2019-04-30T04:30:50.791Z,58.17
2019-04-30T04:33:20.545Z,58.40
2019-04-30T04:35:50.191Z,57.67
2019-04-30T04:38:20.573Z,57.54
2019-04-30T04:40:50.506Z,57.43
2019-04-30T04:43:20.455Z,56.87
2019-04-30T04:45:50.298Z,56.94
2019-04-30T04:48:23.270Z,56.17
2019-04-30T04:50:51.225Z,56.36
2019-04-30T04:53:20.835Z,56.43
2019-04-30T04:55:50.419Z,56.18
2019-04-30T04:58:21.710Z,55.93
2019-04-30T05:00:51.511Z,55.92
2019-04-30T05:03:22.786Z,55.61
2019-04-30T05:05:52.400Z,55.46
2019-04-30T05:08:22.074Z,55.20
2019-04-30T05:10:51.678Z,54.86
2019-04-30T05:13:21.272Z,55.08
2019-04-30T05:15:51.530Z,54.70
2019-04-30T05:18:22.755Z,54.59
2019-04-30T05:20:52.452Z,54.19
2019-04-30T05:23:22.083Z,53.68
2019-04-30T05:25:51.652Z,53.82
2019-04-30T05:28:21.253Z,53.18
2019-04-30T05:30:50.858Z,52.88
2019-04-30T05:33:20.466Z,52.93
2019-04-30T05:35:50.077Z,52.64
2019-04-30T05:38:19.684Z,52.68
2019-04-30T05:40:49.649Z,52.47
2019-04-30T05:43:19.440Z,52.50
2019-04-30T05:45:49.351Z,52.36
2019-04-30T05:48:19.038Z,51.85
2019-04-30T05:50:51.523Z,51.56
2019-04-30T05:53:19.960Z,51.72
2019-04-30T05:55:49.566Z,50.46
2019-04-30T05:58:19.930Z,50.54
2019-04-30T06:00:50.044Z,50.17
2019-04-30T06:03:29.939Z,50.44
2019-04-30T06:05:51.186Z,50.49
2019-04-30T06:08:22.493Z,50.50
2019-04-30T06:10:56.523Z,50.17
2019-04-30T06:13:46.041Z,49.93
2019-04-30T06:16:18.826Z,50.08
2019-04-30T06:18:48.603Z,49.90
2019-04-30T06:21:19.316Z,49.75
2019-04-30T06:23:49.675Z,49.35
2019-04-30T06:26:20.665Z,49.18
2019-04-30T06:28:50.479Z,48.49
2019-04-30T06:31:31.806Z,48.45
2019-04-30T06:33:53.108Z,48.20
2019-04-30T06:36:22.936Z,47.80
2019-04-30T06:38:52.710Z,47.86
2019-04-30T06:41:22.307Z,47.51
2019-04-30T06:43:53.908Z,47.28
2019-04-30T06:46:23.672Z,46.67
2019-04-30T06:48:54.026Z,46.32
2019-04-30T06:51:24.209Z,46.50
2019-04-30T06:53:53.838Z,45.92
2019-04-30T06:56:23.448Z,45.82
2019-04-30T06:58:53.063Z,45.44
2019-04-30T07:01:24.168Z,45.61
2019-04-30T07:03:53.799Z,45.17
2019-04-30T07:06:29.645Z,44.28
2019-04-30T07:09:00.199Z,43.59
2019-04-30T07:11:31.507Z,43.44
2019-04-30T07:14:01.144Z,42.91
2019-04-30T07:16:30.772Z,42.45
2019-04-30T07:19:00.369Z,42.29
2019-04-30T07:21:31.702Z,42.00
2019-04-30T07:24:01.657Z,41.60
2019-04-30T07:26:31.256Z,40.94
2019-04-30T07:29:02.579Z,40.71
2019-04-30T07:31:33.431Z,40.72
2019-04-30T07:34:03.034Z,40.17
2019-04-30T07:36:45.326Z,40.32
2019-04-30T07:39:05.923Z,40.66
2019-04-30T07:41:35.531Z,40.21
2019-04-30T07:44:05.393Z,39.93
2019-04-30T07:46:39.839Z,40.03
2019-04-30T07:49:06.370Z,39.85
2019-04-30T07:51:38.765Z,40.41
2019-04-30T07:54:09.170Z,40.04
2019-04-30T07:56:41.765Z,39.66
2019-04-30T07:59:11.039Z,38.95
2019-04-30T08:02:00.642Z,38.49
2019-04-30T08:04:24.042Z,37.87
2019-04-30T08:06:54.055Z,36.92
2019-04-30T08:09:23.716Z,36.15
2019-04-30T08:11:53.321Z,35.72
2019-04-30T08:14:24.572Z,34.02
2019-04-30T08:16:54.304Z,33.84
2019-04-30T08:19:23.920Z,32.91
2019-04-30T08:21:53.505Z,32.36
2019-04-30T08:24:23.162Z,31.31
2019-04-30T08:26:52.750Z,30.71
2019-04-30T08:29:22.363Z,30.24
2019-04-30T08:31:51.987Z,29.25
2019-04-30T08:34:21.619Z,28.09
2019-04-30T08:36:53.293Z,27.57
2019-04-30T08:39:22.986Z,27.10
2019-04-30T08:41:52.595Z,25.92
2019-04-30T08:44:22.201Z,25.24
2019-04-30T08:46:53.062Z,24.18
2019-04-30T08:49:22.884Z,23.52
2019-04-30T08:51:52.940Z,22.72
2019-04-30T08:54:22.559Z,22.95
2019-04-30T08:56:52.189Z,22.24
2019-04-30T08:59:21.782Z,21.59
2019-04-30T09:01:51.407Z,20.85
2019-04-30T09:04:21.013Z,20.33
2019-04-30T09:06:50.627Z,19.64
2019-04-30T09:09:20.233Z,19.15
2019-04-30T09:11:55.174Z,18.96
2019-04-30T09:14:21.187Z,18.33
2019-04-30T09:16:51.368Z,17.77
2019-04-30T09:19:21.385Z,17.38
2019-04-30T09:21:51.085Z,17.33
2019-04-30T09:24:20.692Z,16.51
2019-04-30T09:26:50.304Z,16.25
2019-04-30T09:29:19.921Z,15.82
2019-04-30T09:31:49.562Z,16.09
2019-04-30T09:34:21.134Z,15.15
2019-04-30T09:36:52.348Z,15.28
2019-04-30T09:39:23.112Z,14.96
2019-04-30T09:41:52.858Z,14.69
2019-04-30T09:44:23.499Z,14.11
2019-04-30T09:46:53.119Z,13.55
2019-04-30T09:49:22.723Z,13.79
2019-04-30T09:51:52.609Z,13.41
2019-04-30T09:54:22.610Z,13.29
2019-04-30T09:56:52.786Z,12.94
2019-04-30T09:59:22.511Z,12.53
2019-04-30T10:01:52.125Z,11.83
2019-04-30T10:04:22.302Z,11.41
2019-04-30T10:06:54.757Z,10.67
2019-04-30T10:09:24.362Z,10.38
2019-04-30T10:11:59.632Z,10.10
2019-04-30T10:14:29.317Z,10.02
2019-04-30T10:17:03.153Z,9.71
2019-04-30T10:19:32.761Z,9.02
2019-04-30T10:22:02.369Z,9.48
2019-04-30T10:24:31.975Z,8.97
2019-04-30T10:27:02.933Z,8.62
2019-04-30T10:29:32.711Z,8.32
2019-04-30T10:32:02.307Z,8.39
2019-04-30T10:34:31.935Z,7.94
2019-04-30T10:37:02.994Z,7.56
2019-04-30T10:39:32.874Z,7.52
2019-04-30T10:42:02.950Z,6.51
2019-04-30T10:44:32.546Z,6.40
2019-04-30T10:47:02.175Z,6.71
2019-04-30T10:49:31.768Z,6.29
2019-04-30T10:52:01.391Z,6.08
2019-04-30T10:54:31.160Z,5.84
2019-04-30T10:57:00.772Z,5.73
2019-04-30T10:59:30.383Z,5.50
2019-04-30T11:01:59.986Z,5.33
2019-04-30T11:04:29.603Z,4.96
2019-04-30T11:07:00.509Z,4.58
2019-04-30T11:09:32.976Z,4.63
2019-04-30T11:12:03.221Z,4.46
2019-04-30T11:14:32.918Z,4.63
2019-04-30T11:17:02.853Z,4.76
2019-04-30T11:19:32.794Z,4.42
2019-04-30T11:22:02.738Z,4.34
2019-04-30T11:24:38.055Z,4.05
2019-04-30T11:27:04.349Z,3.93
2019-04-30T11:29:34.331Z,4.11
2019-04-30T11:32:08.685Z,3.90
2019-04-30T11:34:38.463Z,3.86
2019-04-30T11:37:08.134Z,3.62
2019-04-30T11:39:37.748Z,3.59
2019-04-30T11:42:07.920Z,3.57
2019-04-30T11:44:38.704Z,3.49
2019-04-30T11:47:28.351Z,3.50
2019-04-30T11:49:57.963Z,3.38
2019-04-30T11:52:27.803Z,3.35
2019-04-30T11:54:59.646Z,3.14
2019-04-30T11:57:29.899Z,3.22
2019-04-30T12:00:00.302Z,3.22
2019-04-30T12:02:31.564Z,3.11
2019-04-30T12:05:05.174Z,2.90
2019-04-30T12:07:50.986Z,2.79
2019-04-30T12:10:29.381Z,2.73
2019-04-30T12:12:59.044Z,2.91
2019-04-30T12:15:29.153Z,3.05
2019-04-30T12:17:58.876Z,3.03
2019-04-30T12:20:28.457Z,2.86
2019-04-30T12:22:59.142Z,2.90
2019-04-30T12:25:30.425Z,2.87
2019-04-30T12:28:00.070Z,2.72
2019-04-30T12:30:29.733Z,2.66
2019-04-30T12:33:00.678Z,2.76
2019-04-30T12:35:30.320Z,2.64
2019-04-30T12:37:59.905Z,2.64
2019-04-30T12:40:32.333Z,2.77
2019-04-30T12:43:02.153Z,2.83
2019-04-30T12:45:31.761Z,2.63
2019-04-30T12:48:02.995Z,2.80
2019-04-30T12:50:34.226Z,2.95
2019-04-30T12:53:05.640Z,3.18
2019-04-30T12:55:39.104Z,3.13
2019-04-30T12:58:09.775Z,2.80
2019-04-30T13:00:39.588Z,2.53
2019-04-30T13:03:09.855Z,2.44
2019-04-30T13:05:39.654Z,2.24
2019-04-30T13:08:10.170Z,2.32
2019-04-30T13:10:40.488Z,2.65
2019-04-30T13:13:11.083Z,2.63
2019-04-30T13:15:40.985Z,2.38
2019-04-30T13:18:10.595Z,2.07
2019-04-30T13:20:40.270Z,2.22
2019-04-30T13:23:09.882Z,2.16
2019-04-30T13:25:51.065Z,2.17
2019-04-30T13:28:15.033Z,2.25
2019-04-30T13:30:44.674Z,2.51
2019-04-30T13:33:15.920Z,2.67
2019-04-30T13:35:45.552Z,2.65
2019-04-30T13:38:16.799Z,2.36
2019-04-30T13:40:51.926Z,2.17
2019-04-30T13:43:24.563Z,2.19
2019-04-30T13:45:54.171Z,2.18
2019-04-30T13:48:23.763Z,1.97
2019-04-30T13:50:53.386Z,2.07
2019-04-30T13:53:22.994Z,2.29
2019-04-30T13:55:53.541Z,2.83
2019-04-30T13:58:23.159Z,2.95
2019-04-30T14:00:52.792Z,2.70
2019-04-30T14:03:25.570Z,2.58
2019-04-30T14:05:55.590Z,2.55
2019-04-30T14:08:38.875Z,2.55
2019-04-30T14:11:09.097Z,2.72
2019-04-30T14:13:39.026Z,2.99
2019-04-30T14:16:08.649Z,2.83
2019-04-30T14:18:39.092Z,2.99
2019-04-30T14:21:09.453Z,2.93
2019-04-30T14:23:39.608Z,2.88
2019-04-30T14:26:09.456Z,2.81
2019-04-30T14:28:39.233Z,2.97
2019-04-30T14:31:09.695Z,3.24
2019-04-30T14:33:40.152Z,3.13
2019-04-30T14:36:10.714Z,3.25
2019-04-30T14:38:40.685Z,3.45
2019-04-30T14:41:11.849Z,3.52
2019-04-30T14:43:44.571Z,4.86
2019-04-30T14:46:25.067Z,7.20
2019-04-30T14:49:15.015Z,9.35
2019-04-30T14:51:43.971Z,11.36
2019-04-30T14:54:21.237Z,11.36
2019-04-30T14:57:07.623Z,13.48
2019-04-30T14:59:52.232Z,14.08
2019-04-30T15:02:26.415Z,14.58
2019-04-30T15:04:56.033Z,15.25
2019-04-30T21:23:29.132Z,52.96
2019-04-30T21:25:58.947Z,53.69
2019-04-30T21:28:29.743Z,54.53
2019-04-30T21:31:01.120Z,54.68
2019-04-30T21:33:35.176Z,54.86
2019-04-30T21:36:08.350Z,54.72
2019-04-30T21:38:38.932Z,54.25
2019-04-30T21:41:09.967Z,54.04
2019-04-30T21:43:39.717Z,54.38
2019-04-30T21:46:09.604Z,54.67
2019-04-30T21:48:39.227Z,54.75
2019-04-30T21:51:09.410Z,54.31
2019-04-30T21:53:39.727Z,53.97
2019-04-30T21:56:09.450Z,54.40
2019-04-30T21:58:39.396Z,54.50
2019-04-30T22:01:13.452Z,54.88
2019-04-30T22:03:44.743Z,55.26
2019-04-30T22:06:15.284Z,53.94
2019-04-30T22:08:44.889Z,53.12
2019-04-30T22:11:14.679Z,53.17
2019-04-30T22:13:44.323Z,52.71
2019-04-30T22:16:14.026Z,52.76
2019-04-30T22:18:43.649Z,52.62
2019-04-30T22:21:13.241Z,53.18
2019-04-30T22:23:42.831Z,53.71
2019-04-30T22:26:12.444Z,53.93
2019-04-30T22:28:42.058Z,54.09
2019-04-30T22:31:11.671Z,54.75
2019-04-30T22:33:41.288Z,54.64
2019-04-30T22:36:14.977Z,54.88
2019-04-30T22:38:48.762Z,55.12
2019-04-30T22:41:19.438Z,55.20
2019-04-30T22:43:49.035Z,55.50
2019-04-30T22:46:19.534Z,55.79
2019-04-30T22:48:49.127Z,56.20
2019-04-30T22:51:18.760Z,56.36
2019-04-30T22:53:48.379Z,56.94
2019-04-30T22:56:17.985Z,57.54
2019-04-30T22:58:47.602Z,57.99
2019-04-30T23:01:30.718Z,58.29
2019-04-30T23:04:01.983Z,58.49
2019-04-30T23:06:31.605Z,58.77
2019-04-30T23:09:01.245Z,59.27
2019-04-30T23:11:30.860Z,59.56
2019-04-30T23:14:00.486Z,59.84
2019-04-30T23:16:30.684Z,60.05
2019-04-30T23:19:00.293Z,60.28
2019-04-30T23:21:29.901Z,60.94
2019-04-30T23:24:00.072Z,61.24
2019-04-30T23:26:29.684Z,61.34
2019-04-30T23:28:59.289Z,61.81
2019-04-30T23:31:28.921Z,62.11
2019-04-30T23:33:58.532Z,62.60
2019-04-30T23:36:28.152Z,63.17
2019-04-30T23:38:57.818Z,63.05
2019-04-30T23:41:27.452Z,63.65
2019-04-30T23:43:57.064Z,63.30
2019-04-30T23:46:26.705Z,63.28
2019-04-30T23:48:56.316Z,63.62
2019-04-30T23:51:25.932Z,64.26
2019-04-30T23:53:55.543Z,64.94
2019-04-30T23:56:25.177Z,65.53
2019-04-30T23:58:54.789Z,65.84
